This is the latest recevied weather packets stored in our database for station/object PY2MST-11. If no packets are shown the sender has not sent any weather packets the latest 10 day(s).
| Time | Temp. | Humidity | Pressure | Rain* | Wind** | Luminosity | Snow |
|---|---|---|---|---|---|---|---|
| 1788138713 | 9° F | 5% | 332.7 mmHg | - | - | - | - |
| 1788138412 | -5° F | 93% | 280.5 mmHg | - | - | - | - |
| 1788138110 | -24° F | 61% | 226.6 mmHg | - | - | - | - |
| 1788137809 | -51° F | 31% | 173.6 mmHg | - | - | - | - |
| 1788137508 | -75° F | 14% | 129.8 mmHg | - | - | - | - |
| 1788137206 | -92° F | 26% | 91.9 mmHg | - | - | - | - |
| 1788136905 | -82° F | 2% | 58.9 mmHg | - | - | - | - |
| 1788136604 | -79° F | 1% | 33.2 mmHg | - | - | - | - |
| 1788136303 | -57° F | 1% | 15.6 mmHg | - | - | - | - |
| 1788136002 | -68° F | 1% | 21.7 mmHg | - | - | - | - |
| 1788135699 | -74° F | 1% | 30.6 mmHg | - | - | - | - |
| 1788135398 | -82° F | 2% | 43.4 mmHg | - | - | - | - |
| 1788135097 | -82° F | 4% | 61.3 mmHg | - | - | - | - |
| 1788134796 | -94° F | 30% | 89.6 mmHg | - | - | - | - |
| 1788134494 | -76° F | 61% | 133.5 mmHg | - | - | - | - |
| 1788134192 | -43° F | 48% | 189 mmHg | - | - | - | - |
| 1788133891 | -45° F | - | - | - | - | - | - |
| 1788098197 | 59° F | 64% | 566.7 mmHg | - | - | - | - |
| 1788097895 | 49° F | 50% | 517.2 mmHg | - | - | - | - |
| 1788097594 | 34° F | 95% | 462.4 mmHg | - | - | - | - |
| 1788097293 | 27° F | 46% | 414.7 mmHg | - | - | - | - |
| 1788096991 | 17° F | 13% | 370.8 mmHg | - | - | - | - |
| 1788096690 | 5° F | 6% | 324.9 mmHg | - | - | - | - |
| 1788096389 | -5° F | 21% | 283.8 mmHg | - | - | - | - |
| 1788096087 | -18° F | 60% | 244.8 mmHg | - | - | - | - |
* Rain since midnight (hover to see other rain measurements)
** Current wind speed in m/s (hover to see current wind gust speed)